<?xml version="1.0" encoding="UTF-8" standalone="no" ?>
<gpx xmlns="http://www.topografix.com/GPX/1/1" xmlns:xsi="http://www.w3.org/2001/XMLSchema-instance" xsi:schemaLocation="http://www.topografix.com/GPX/1/1 http://www.topografix.com/GPX/1/1/gpx.xsd" version="1.1" creator="VisuGPX - https://www.visugpx.com">
  <metadata>
    <name>La Onzainoise - 24 km sur TraceDeTrail.fr</name>
  </metadata>
  <trk>
    <name><![CDATA[La Onzainoise - 24 km sur TraceDeTrail.fr]]></name>
    <trkseg>
      <trkpt lat="47.50228" lon="1.16849">
        <ele>64</ele>
        <time>2000-01-01T01:28:28.000Z</time>
      </trkpt>
      <trkpt lat="47.50206" lon="1.16871">
        <ele>66</ele>
        <time>2000-01-01T01:28:38.000Z</time>
      </trkpt>
      <trkpt lat="47.50178" lon="1.169">
        <ele>71</ele>
        <time>2000-01-01T01:28:48.000Z</time>
      </trkpt>
      <trkpt lat="47.50185" lon="1.16858">
        <ele>71</ele>
        <time>2000-01-01T01:28:58.000Z</time>
      </trkpt>
      <trkpt lat="47.50196" lon="1.16783">
        <ele>80</ele>
        <time>2000-01-01T01:29:08.000Z</time>
      </trkpt>
      <trkpt lat="47.50192" lon="1.16738">
        <ele>81</ele>
        <time>2000-01-01T01:29:18.000Z</time>
      </trkpt>
      <trkpt lat="47.50189" lon="1.16692">
        <ele>79</ele>
        <time>2000-01-01T01:29:28.000Z</time>
      </trkpt>
      <trkpt lat="47.50185" lon="1.16642">
        <ele>82</ele>
        <time>2000-01-01T01:29:38.000Z</time>
      </trkpt>
      <trkpt lat="47.50188" lon="1.16599">
        <ele>85</ele>
        <time>2000-01-01T01:29:48.000Z</time>
      </trkpt>
      <trkpt lat="47.50193" lon="1.16519">
        <ele>87</ele>
        <time>2000-01-01T01:29:58.000Z</time>
      </trkpt>
      <trkpt lat="47.50203" lon="1.16478">
        <ele>86</ele>
        <time>2000-01-01T01:30:08.000Z</time>
      </trkpt>
      <trkpt lat="47.50221" lon="1.16403">
        <ele>85</ele>
        <time>2000-01-01T01:30:18.000Z</time>
      </trkpt>
      <trkpt lat="47.50234" lon="1.16374">
        <ele>78</ele>
        <time>2000-01-01T01:30:28.000Z</time>
      </trkpt>
      <trkpt lat="47.50248" lon="1.16344">
        <ele>78</ele>
        <time>2000-01-01T01:30:38.000Z</time>
      </trkpt>
      <trkpt lat="47.50271" lon="1.16316">
        <ele>90</ele>
        <time>2000-01-01T01:30:48.000Z</time>
      </trkpt>
      <trkpt lat="47.50314" lon="1.16265">
        <ele>91</ele>
        <time>2000-01-01T01:30:58.000Z</time>
      </trkpt>
      <trkpt lat="47.5034" lon="1.16258">
        <ele>93</ele>
        <time>2000-01-01T01:31:08.000Z</time>
      </trkpt>
      <trkpt lat="47.50377" lon="1.1625">
        <ele>89</ele>
        <time>2000-01-01T01:31:18.000Z</time>
      </trkpt>
      <trkpt lat="47.50404" lon="1.16274">
        <ele>86</ele>
        <time>2000-01-01T01:31:28.000Z</time>
      </trkpt>
      <trkpt lat="47.50431" lon="1.16299">
        <ele>85</ele>
        <time>2000-01-01T01:31:38.000Z</time>
      </trkpt>
      <trkpt lat="47.50464" lon="1.1633">
        <ele>82</ele>
        <time>2000-01-01T01:31:48.000Z</time>
      </trkpt>
      <trkpt lat="47.50477" lon="1.16377">
        <ele>82</ele>
        <time>2000-01-01T01:31:58.000Z</time>
      </trkpt>
      <trkpt lat="47.50482" lon="1.16419">
        <ele>82</ele>
        <time>2000-01-01T01:32:08.000Z</time>
      </trkpt>
      <trkpt lat="47.50487" lon="1.16428">
        <ele>68</ele>
        <time>2000-01-01T01:32:18.000Z</time>
      </trkpt>
      <trkpt lat="47.50405" lon="1.16496">
        <ele>80</ele>
        <time>2000-01-01T01:32:28.000Z</time>
      </trkpt>
      <trkpt lat="47.50381" lon="1.16484">
        <ele>79</ele>
        <time>2000-01-01T01:32:38.000Z</time>
      </trkpt>
      <trkpt lat="47.50353" lon="1.16471">
        <ele>79</ele>
        <time>2000-01-01T01:32:48.000Z</time>
      </trkpt>
      <trkpt lat="47.50311" lon="1.16481">
        <ele>72</ele>
        <time>2000-01-01T01:32:58.000Z</time>
      </trkpt>
      <trkpt lat="47.50289" lon="1.16479">
        <ele>70</ele>
        <time>2000-01-01T01:33:08.000Z</time>
      </trkpt>
      <trkpt lat="47.50293" lon="1.16518">
        <ele>74</ele>
        <time>2000-01-01T01:33:18.000Z</time>
      </trkpt>
      <trkpt lat="47.50298" lon="1.16574">
        <ele>78</ele>
        <time>2000-01-01T01:33:28.000Z</time>
      </trkpt>
      <trkpt lat="47.50298" lon="1.16629">
        <ele>75</ele>
        <time>2000-01-01T01:33:38.000Z</time>
      </trkpt>
      <trkpt lat="47.50298" lon="1.16684">
        <ele>72</ele>
        <time>2000-01-01T01:33:48.000Z</time>
      </trkpt>
      <trkpt lat="47.50298" lon="1.16739">
        <ele>70</ele>
        <time>2000-01-01T01:33:58.000Z</time>
      </trkpt>
      <trkpt lat="47.50298" lon="1.16794">
        <ele>70</ele>
        <time>2000-01-01T01:34:08.000Z</time>
      </trkpt>
      <trkpt lat="47.50297" lon="1.16874">
        <ele>70</ele>
        <time>2000-01-01T01:34:18.000Z</time>
      </trkpt>
      <trkpt lat="47.5029" lon="1.16921">
        <ele>70</ele>
        <time>2000-01-01T01:34:28.000Z</time>
      </trkpt>
      <trkpt lat="47.50283" lon="1.16969">
        <ele>71</ele>
        <time>2000-01-01T01:34:38.000Z</time>
      </trkpt>
      <trkpt lat="47.50272" lon="1.17044">
        <ele>72</ele>
        <time>2000-01-01T01:34:48.000Z</time>
      </trkpt>
      <trkpt lat="47.50302" lon="1.17054">
        <ele>80</ele>
        <time>2000-01-01T01:34:58.000Z</time>
      </trkpt>
      <trkpt lat="47.5033" lon="1.17054">
        <ele>84</ele>
        <time>2000-01-01T01:35:08.000Z</time>
      </trkpt>
      <trkpt lat="47.50346" lon="1.1702">
        <ele>88</ele>
        <time>2000-01-01T01:35:18.000Z</time>
      </trkpt>
      <trkpt lat="47.50372" lon="1.16964">
        <ele>89</ele>
        <time>2000-01-01T01:35:28.000Z</time>
      </trkpt>
      <trkpt lat="47.50404" lon="1.16927">
        <ele>90</ele>
        <time>2000-01-01T01:35:38.000Z</time>
      </trkpt>
      <trkpt lat="47.50427" lon="1.16905">
        <ele>96</ele>
        <time>2000-01-01T01:35:48.000Z</time>
      </trkpt>
      <trkpt lat="47.50442" lon="1.16942">
        <ele>100</ele>
        <time>2000-01-01T01:35:58.000Z</time>
      </trkpt>
      <trkpt lat="47.50469" lon="1.17009">
        <ele>100</ele>
        <time>2000-01-01T01:36:08.000Z</time>
      </trkpt>
      <trkpt lat="47.50496" lon="1.16984">
        <ele>100</ele>
        <time>2000-01-01T01:36:18.000Z</time>
      </trkpt>
      <trkpt lat="47.50524" lon="1.1696">
        <ele>103</ele>
        <time>2000-01-01T01:36:28.000Z</time>
      </trkpt>
      <trkpt lat="47.50562" lon="1.16926">
        <ele>104</ele>
        <time>2000-01-01T01:36:38.000Z</time>
      </trkpt>
      <trkpt lat="47.5059" lon="1.1691">
        <ele>98</ele>
        <time>2000-01-01T01:36:48.000Z</time>
      </trkpt>
      <trkpt lat="47.50643" lon="1.1688">
        <ele>93</ele>
        <time>2000-01-01T01:36:58.000Z</time>
      </trkpt>
      <trkpt lat="47.50663" lon="1.16891">
        <ele>93</ele>
        <time>2000-01-01T01:37:08.000Z</time>
      </trkpt>
      <trkpt lat="47.50699" lon="1.16881">
        <ele>97</ele>
        <time>2000-01-01T01:37:18.000Z</time>
      </trkpt>
      <trkpt lat="47.50735" lon="1.16872">
        <ele>95</ele>
        <time>2000-01-01T01:37:28.000Z</time>
      </trkpt>
      <trkpt lat="47.5077" lon="1.16862">
        <ele>94</ele>
        <time>2000-01-01T01:37:38.000Z</time>
      </trkpt>
      <trkpt lat="47.50839" lon="1.16844">
        <ele>92</ele>
        <time>2000-01-01T01:37:48.000Z</time>
      </trkpt>
      <trkpt lat="47.50866" lon="1.16824">
        <ele>90</ele>
        <time>2000-01-01T01:37:58.000Z</time>
      </trkpt>
      <trkpt lat="47.50913" lon="1.1679">
        <ele>91</ele>
        <time>2000-01-01T01:38:08.000Z</time>
      </trkpt>
      <trkpt lat="47.50935" lon="1.16758">
        <ele>92</ele>
        <time>2000-01-01T01:38:18.000Z</time>
      </trkpt>
      <trkpt lat="47.50956" lon="1.16726">
        <ele>93</ele>
        <time>2000-01-01T01:38:28.000Z</time>
      </trkpt>
      <trkpt lat="47.50978" lon="1.16693">
        <ele>98</ele>
        <time>2000-01-01T01:38:38.000Z</time>
      </trkpt>
      <trkpt lat="47.51004" lon="1.16677">
        <ele>98</ele>
        <time>2000-01-01T01:38:48.000Z</time>
      </trkpt>
      <trkpt lat="47.51023" lon="1.16627">
        <ele>103</ele>
        <time>2000-01-01T01:38:58.000Z</time>
      </trkpt>
      <trkpt lat="47.51042" lon="1.16577">
        <ele>99</ele>
        <time>2000-01-01T01:39:08.000Z</time>
      </trkpt>
      <trkpt lat="47.51061" lon="1.16527">
        <ele>96</ele>
        <time>2000-01-01T01:39:18.000Z</time>
      </trkpt>
      <trkpt lat="47.5108" lon="1.16477">
        <ele>102</ele>
        <time>2000-01-01T01:39:28.000Z</time>
      </trkpt>
      <trkpt lat="47.51099" lon="1.16427">
        <ele>96</ele>
        <time>2000-01-01T01:39:38.000Z</time>
      </trkpt>
      <trkpt lat="47.51134" lon="1.16336">
        <ele>97</ele>
        <time>2000-01-01T01:39:48.000Z</time>
      </trkpt>
      <trkpt lat="47.51154" lon="1.16287">
        <ele>94</ele>
        <time>2000-01-01T01:39:58.000Z</time>
      </trkpt>
      <trkpt lat="47.51174" lon="1.16238">
        <ele>91</ele>
        <time>2000-01-01T01:40:08.000Z</time>
      </trkpt>
      <trkpt lat="47.51194" lon="1.16189">
        <ele>92</ele>
        <time>2000-01-01T01:40:18.000Z</time>
      </trkpt>
      <trkpt lat="47.51213" lon="1.1614">
        <ele>94</ele>
        <time>2000-01-01T01:40:28.000Z</time>
      </trkpt>
      <trkpt lat="47.51233" lon="1.16092">
        <ele>97</ele>
        <time>2000-01-01T01:40:38.000Z</time>
      </trkpt>
      <trkpt lat="47.51263" lon="1.16018">
        <ele>98</ele>
        <time>2000-01-01T01:40:48.000Z</time>
      </trkpt>
      <trkpt lat="47.51292" lon="1.15977">
        <ele>100</ele>
        <time>2000-01-01T01:40:58.000Z</time>
      </trkpt>
      <trkpt lat="47.51321" lon="1.15937">
        <ele>100</ele>
        <time>2000-01-01T01:41:08.000Z</time>
      </trkpt>
      <trkpt lat="47.5135" lon="1.15897">
        <ele>96</ele>
        <time>2000-01-01T01:41:18.000Z</time>
      </trkpt>
      <trkpt lat="47.51379" lon="1.15856">
        <ele>95</ele>
        <time>2000-01-01T01:41:28.000Z</time>
      </trkpt>
      <trkpt lat="47.51408" lon="1.15816">
        <ele>93</ele>
        <time>2000-01-01T01:41:38.000Z</time>
      </trkpt>
      <trkpt lat="47.51437" lon="1.15776">
        <ele>93</ele>
        <time>2000-01-01T01:41:48.000Z</time>
      </trkpt>
      <trkpt lat="47.51492" lon="1.15699">
        <ele>94</ele>
        <time>2000-01-01T01:41:58.000Z</time>
      </trkpt>
      <trkpt lat="47.51481" lon="1.15647">
        <ele>95</ele>
        <time>2000-01-01T01:42:08.000Z</time>
      </trkpt>
      <trkpt lat="47.5147" lon="1.15596">
        <ele>99</ele>
        <time>2000-01-01T01:42:18.000Z</time>
      </trkpt>
      <trkpt lat="47.51458" lon="1.15544">
        <ele>100</ele>
        <time>2000-01-01T01:42:28.000Z</time>
      </trkpt>
      <trkpt lat="47.51447" lon="1.15492">
        <ele>101</ele>
        <time>2000-01-01T01:42:38.000Z</time>
      </trkpt>
      <trkpt lat="47.51434" lon="1.15434">
        <ele>101</ele>
        <time>2000-01-01T01:42:48.000Z</time>
      </trkpt>
      <trkpt lat="47.51435" lon="1.15389">
        <ele>101</ele>
        <time>2000-01-01T01:42:58.000Z</time>
      </trkpt>
      <trkpt lat="47.51436" lon="1.15301">
        <ele>102</ele>
        <time>2000-01-01T01:43:08.000Z</time>
      </trkpt>
      <trkpt lat="47.51432" lon="1.15259">
        <ele>96</ele>
        <time>2000-01-01T01:43:18.000Z</time>
      </trkpt>
      <trkpt lat="47.51425" lon="1.15187">
        <ele>90</ele>
        <time>2000-01-01T01:43:28.000Z</time>
      </trkpt>
      <trkpt lat="47.51454" lon="1.15151">
        <ele>90</ele>
        <time>2000-01-01T01:43:38.000Z</time>
      </trkpt>
      <trkpt lat="47.51458" lon="1.15128">
        <ele>78.6</ele>
        <time>2000-01-01T01:43:48.000Z</time>
      </trkpt>
      <trkpt lat="47.51458" lon="1.15067">
        <ele>92</ele>
        <time>2000-01-01T01:43:58.000Z</time>
      </trkpt>
      <trkpt lat="47.51462" lon="1.15023">
        <ele>95</ele>
        <time>2000-01-01T01:44:08.000Z</time>
      </trkpt>
      <trkpt lat="47.5147" lon="1.14935">
        <ele>100</ele>
        <time>2000-01-01T01:44:18.000Z</time>
      </trkpt>
      <trkpt lat="47.51479" lon="1.14898">
        <ele>100</ele>
        <time>2000-01-01T01:44:28.000Z</time>
      </trkpt>
      <trkpt lat="47.51489" lon="1.1485">
        <ele>100</ele>
        <time>2000-01-01T01:44:38.000Z</time>
      </trkpt>
      <trkpt lat="47.51489" lon="1.14813">
        <ele>103</ele>
        <time>2000-01-01T01:44:48.000Z</time>
      </trkpt>
      <trkpt lat="47.51489" lon="1.14769">
        <ele>105</ele>
        <time>2000-01-01T01:44:58.000Z</time>
      </trkpt>
      <trkpt lat="47.51513" lon="1.1475">
        <ele>106</ele>
        <time>2000-01-01T01:45:08.000Z</time>
      </trkpt>
      <trkpt lat="47.51548" lon="1.14724">
        <ele>100</ele>
        <time>2000-01-01T01:45:18.000Z</time>
      </trkpt>
      <trkpt lat="47.51565" lon="1.14681">
        <ele>98</ele>
        <time>2000-01-01T01:45:28.000Z</time>
      </trkpt>
      <trkpt lat="47.51581" lon="1.14639">
        <ele>101</ele>
        <time>2000-01-01T01:45:38.000Z</time>
      </trkpt>
      <trkpt lat="47.51609" lon="1.1457">
        <ele>104</ele>
        <time>2000-01-01T01:45:48.000Z</time>
      </trkpt>
      <trkpt lat="47.51624" lon="1.14545">
        <ele>102</ele>
        <time>2000-01-01T01:45:58.000Z</time>
      </trkpt>
      <trkpt lat="47.51641" lon="1.14518">
        <ele>100</ele>
        <time>2000-01-01T01:46:08.000Z</time>
      </trkpt>
      <trkpt lat="47.51647" lon="1.14476">
        <ele>98</ele>
        <time>2000-01-01T01:46:18.000Z</time>
      </trkpt>
      <trkpt lat="47.51659" lon="1.14404">
        <ele>92</ele>
        <time>2000-01-01T01:46:28.000Z</time>
      </trkpt>
      <trkpt lat="47.51673" lon="1.14377">
        <ele>90</ele>
        <time>2000-01-01T01:46:38.000Z</time>
      </trkpt>
      <trkpt lat="47.51689" lon="1.1435">
        <ele>90</ele>
        <time>2000-01-01T01:46:48.000Z</time>
      </trkpt>
      <trkpt lat="47.51691" lon="1.143">
        <ele>91</ele>
        <time>2000-01-01T01:46:58.000Z</time>
      </trkpt>
      <trkpt lat="47.51694" lon="1.14249">
        <ele>93</ele>
        <time>2000-01-01T01:47:08.000Z</time>
      </trkpt>
      <trkpt lat="47.51697" lon="1.14199">
        <ele>93</ele>
        <time>2000-01-01T01:47:18.000Z</time>
      </trkpt>
      <trkpt lat="47.517" lon="1.14146">
        <ele>94</ele>
        <time>2000-01-01T01:47:28.000Z</time>
      </trkpt>
      <trkpt lat="47.51728" lon="1.14148">
        <ele>101</ele>
        <time>2000-01-01T01:47:38.000Z</time>
      </trkpt>
      <trkpt lat="47.51772" lon="1.14151">
        <ele>103</ele>
        <time>2000-01-01T01:47:48.000Z</time>
      </trkpt>
      <trkpt lat="47.5181" lon="1.14171">
        <ele>106</ele>
        <time>2000-01-01T01:47:58.000Z</time>
      </trkpt>
      <trkpt lat="47.51848" lon="1.14192">
        <ele>100</ele>
        <time>2000-01-01T01:48:08.000Z</time>
      </trkpt>
      <trkpt lat="47.51886" lon="1.14213">
        <ele>101</ele>
        <time>2000-01-01T01:48:18.000Z</time>
      </trkpt>
      <trkpt lat="47.51924" lon="1.14233">
        <ele>101</ele>
        <time>2000-01-01T01:48:28.000Z</time>
      </trkpt>
      <trkpt lat="47.51962" lon="1.14254">
        <ele>101</ele>
        <time>2000-01-01T01:48:38.000Z</time>
      </trkpt>
      <trkpt lat="47.52" lon="1.14274">
        <ele>96</ele>
        <time>2000-01-01T01:48:48.000Z</time>
      </trkpt>
      <trkpt lat="47.52038" lon="1.14295">
        <ele>95</ele>
        <time>2000-01-01T01:48:58.000Z</time>
      </trkpt>
      <trkpt lat="47.52076" lon="1.14316">
        <ele>94</ele>
        <time>2000-01-01T01:49:08.000Z</time>
      </trkpt>
      <trkpt lat="47.5212" lon="1.14339">
        <ele>94</ele>
        <time>2000-01-01T01:49:18.000Z</time>
      </trkpt>
      <trkpt lat="47.52157" lon="1.14351">
        <ele>99</ele>
        <time>2000-01-01T01:49:28.000Z</time>
      </trkpt>
      <trkpt lat="47.52193" lon="1.14363">
        <ele>102</ele>
        <time>2000-01-01T01:49:38.000Z</time>
      </trkpt>
      <trkpt lat="47.5223" lon="1.14374">
        <ele>100</ele>
        <time>2000-01-01T01:49:48.000Z</time>
      </trkpt>
      <trkpt lat="47.52266" lon="1.14386">
        <ele>100</ele>
        <time>2000-01-01T01:49:58.000Z</time>
      </trkpt>
      <trkpt lat="47.52322" lon="1.14404">
        <ele>100</ele>
        <time>2000-01-01T01:50:08.000Z</time>
      </trkpt>
      <trkpt lat="47.5235" lon="1.14371">
        <ele>105</ele>
        <time>2000-01-01T01:50:18.000Z</time>
      </trkpt>
      <trkpt lat="47.52371" lon="1.14347">
        <ele>106</ele>
        <time>2000-01-01T01:50:28.000Z</time>
      </trkpt>
      <trkpt lat="47.52401" lon="1.14314">
        <ele>108</ele>
        <time>2000-01-01T01:50:38.000Z</time>
      </trkpt>
      <trkpt lat="47.52412" lon="1.14284">
        <ele>101</ele>
        <time>2000-01-01T01:50:48.000Z</time>
      </trkpt>
      <trkpt lat="47.52433" lon="1.14322">
        <ele>94</ele>
        <time>2000-01-01T01:50:58.000Z</time>
      </trkpt>
      <trkpt lat="47.52457" lon="1.14344">
        <ele>94</ele>
        <time>2000-01-01T01:51:08.000Z</time>
      </trkpt>
      <trkpt lat="47.52498" lon="1.14379">
        <ele>95</ele>
        <time>2000-01-01T01:51:18.000Z</time>
      </trkpt>
      <trkpt lat="47.52519" lon="1.14417">
        <ele>92</ele>
        <time>2000-01-01T01:51:28.000Z</time>
      </trkpt>
      <trkpt lat="47.5254" lon="1.14454">
        <ele>89</ele>
        <time>2000-01-01T01:51:38.000Z</time>
      </trkpt>
      <trkpt lat="47.52576" lon="1.14517">
        <ele>79</ele>
        <time>2000-01-01T01:51:48.000Z</time>
      </trkpt>
      <trkpt lat="47.52575" lon="1.14553">
        <ele>79</ele>
        <time>2000-01-01T01:51:58.000Z</time>
      </trkpt>
      <trkpt lat="47.52575" lon="1.14595">
        <ele>80</ele>
        <time>2000-01-01T01:52:08.000Z</time>
      </trkpt>
      <trkpt lat="47.52558" lon="1.14626">
        <ele>83</ele>
        <time>2000-01-01T01:52:18.000Z</time>
      </trkpt>
      <trkpt lat="47.52538" lon="1.14643">
        <ele>87</ele>
        <time>2000-01-01T01:52:28.000Z</time>
      </trkpt>
      <trkpt lat="47.52522" lon="1.14669">
        <ele>87</ele>
        <time>2000-01-01T01:52:38.000Z</time>
      </trkpt>
      <trkpt lat="47.52522" lon="1.14688">
        <ele>83.3</ele>
        <time>2000-01-01T01:52:48.000Z</time>
      </trkpt>
      <trkpt lat="47.52536" lon="1.14714">
        <ele>89</ele>
        <time>2000-01-01T01:52:58.000Z</time>
      </trkpt>
      <trkpt lat="47.52544" lon="1.14774">
        <ele>91</ele>
        <time>2000-01-01T01:53:08.000Z</time>
      </trkpt>
      <trkpt lat="47.52553" lon="1.14834">
        <ele>100</ele>
        <time>2000-01-01T01:53:18.000Z</time>
      </trkpt>
      <trkpt lat="47.52562" lon="1.14893">
        <ele>100</ele>
        <time>2000-01-01T01:53:28.000Z</time>
      </trkpt>
      <trkpt lat="47.52571" lon="1.14953">
        <ele>101</ele>
        <time>2000-01-01T01:53:38.000Z</time>
      </trkpt>
      <trkpt lat="47.5258" lon="1.15013">
        <ele>104</ele>
        <time>2000-01-01T01:53:48.000Z</time>
      </trkpt>
      <trkpt lat="47.52589" lon="1.15073">
        <ele>102</ele>
        <time>2000-01-01T01:53:58.000Z</time>
      </trkpt>
      <trkpt lat="47.52598" lon="1.15133">
        <ele>104</ele>
        <time>2000-01-01T01:54:08.000Z</time>
      </trkpt>
      <trkpt lat="47.52607" lon="1.15193">
        <ele>102</ele>
        <time>2000-01-01T01:54:18.000Z</time>
      </trkpt>
      <trkpt lat="47.52616" lon="1.15253">
        <ele>102</ele>
        <time>2000-01-01T01:54:28.000Z</time>
      </trkpt>
      <trkpt lat="47.52625" lon="1.15312">
        <ele>102</ele>
        <time>2000-01-01T01:54:38.000Z</time>
      </trkpt>
      <trkpt lat="47.52635" lon="1.15377">
        <ele>102</ele>
        <time>2000-01-01T01:54:48.000Z</time>
      </trkpt>
      <trkpt lat="47.52645" lon="1.15407">
        <ele>102</ele>
        <time>2000-01-01T01:54:58.000Z</time>
      </trkpt>
      <trkpt lat="47.52646" lon="1.1543">
        <ele>97.8</ele>
        <time>2000-01-01T01:55:08.000Z</time>
      </trkpt>
      <trkpt lat="47.52659" lon="1.15506">
        <ele>99</ele>
        <time>2000-01-01T01:55:18.000Z</time>
      </trkpt>
      <trkpt lat="47.52674" lon="1.15553">
        <ele>95</ele>
        <time>2000-01-01T01:55:28.000Z</time>
      </trkpt>
      <trkpt lat="47.52688" lon="1.156">
        <ele>92</ele>
        <time>2000-01-01T01:55:38.000Z</time>
      </trkpt>
      <trkpt lat="47.52703" lon="1.15647">
        <ele>92</ele>
        <time>2000-01-01T01:55:48.000Z</time>
      </trkpt>
      <trkpt lat="47.52721" lon="1.15706">
        <ele>96</ele>
        <time>2000-01-01T01:55:58.000Z</time>
      </trkpt>
      <trkpt lat="47.52723" lon="1.15747">
        <ele>97</ele>
        <time>2000-01-01T01:56:08.000Z</time>
      </trkpt>
      <trkpt lat="47.52727" lon="1.15812">
        <ele>102</ele>
        <time>2000-01-01T01:56:18.000Z</time>
      </trkpt>
      <trkpt lat="47.52735" lon="1.15851">
        <ele>106</ele>
        <time>2000-01-01T01:56:28.000Z</time>
      </trkpt>
      <trkpt lat="47.52748" lon="1.15913">
        <ele>107</ele>
        <time>2000-01-01T01:56:38.000Z</time>
      </trkpt>
      <trkpt lat="47.52737" lon="1.15955">
        <ele>107</ele>
        <time>2000-01-01T01:56:48.000Z</time>
      </trkpt>
      <trkpt lat="47.52716" lon="1.16037">
        <ele>107</ele>
        <time>2000-01-01T01:56:58.000Z</time>
      </trkpt>
      <trkpt lat="47.52699" lon="1.16075">
        <ele>101</ele>
        <time>2000-01-01T01:57:08.000Z</time>
      </trkpt>
      <trkpt lat="47.52682" lon="1.16113">
        <ele>100</ele>
        <time>2000-01-01T01:57:18.000Z</time>
      </trkpt>
      <trkpt lat="47.52664" lon="1.16156">
        <ele>100</ele>
        <time>2000-01-01T01:57:28.000Z</time>
      </trkpt>
      <trkpt lat="47.52659" lon="1.16189">
        <ele>100</ele>
        <time>2000-01-01T01:57:38.000Z</time>
      </trkpt>
      <trkpt lat="47.52654" lon="1.16225">
        <ele>103</ele>
        <time>2000-01-01T01:57:48.000Z</time>
      </trkpt>
      <trkpt lat="47.52625" lon="1.16265">
        <ele>93</ele>
        <time>2000-01-01T01:57:58.000Z</time>
      </trkpt>
      <trkpt lat="47.52597" lon="1.16306">
        <ele>84</ele>
        <time>2000-01-01T01:58:08.000Z</time>
      </trkpt>
      <trkpt lat="47.52568" lon="1.16346">
        <ele>85</ele>
        <time>2000-01-01T01:58:18.000Z</time>
      </trkpt>
      <trkpt lat="47.5254" lon="1.16387">
        <ele>86</ele>
        <time>2000-01-01T01:58:28.000Z</time>
      </trkpt>
      <trkpt lat="47.52511" lon="1.16427">
        <ele>97</ele>
        <time>2000-01-01T01:58:38.000Z</time>
      </trkpt>
      <trkpt lat="47.52483" lon="1.16468">
        <ele>103</ele>
        <time>2000-01-01T01:58:48.000Z</time>
      </trkpt>
      <trkpt lat="47.52438" lon="1.16531">
        <ele>105</ele>
        <time>2000-01-01T01:58:58.000Z</time>
      </trkpt>
      <trkpt lat="47.52409" lon="1.16565">
        <ele>52</ele>
        <time>2000-01-01T01:59:08.000Z</time>
      </trkpt>
      <trkpt lat="47.52379" lon="1.16599">
        <ele>76</ele>
        <time>2000-01-01T01:59:18.000Z</time>
      </trkpt>
      <trkpt lat="47.5235" lon="1.16633">
        <ele>84</ele>
        <time>2000-01-01T01:59:28.000Z</time>
      </trkpt>
      <trkpt lat="47.5232" lon="1.16667">
        <ele>88</ele>
        <time>2000-01-01T01:59:38.000Z</time>
      </trkpt>
      <trkpt lat="47.52272" lon="1.16721">
        <ele>92</ele>
        <time>2000-01-01T01:59:48.000Z</time>
      </trkpt>
      <trkpt lat="47.52245" lon="1.16733">
        <ele>97</ele>
        <time>2000-01-01T01:59:58.000Z</time>
      </trkpt>
      <trkpt lat="47.52199" lon="1.16751">
        <ele>126</ele>
        <time>2000-01-01T02:00:08.000Z</time>
      </trkpt>
      <trkpt lat="47.52171" lon="1.16711">
        <ele>118</ele>
        <time>2000-01-01T02:00:18.000Z</time>
      </trkpt>
      <trkpt lat="47.52142" lon="1.16671">
        <ele>115</ele>
        <time>2000-01-01T02:00:28.000Z</time>
      </trkpt>
      <trkpt lat="47.52113" lon="1.1663">
        <ele>112</ele>
        <time>2000-01-01T02:00:38.000Z</time>
      </trkpt>
      <trkpt lat="47.52084" lon="1.1659">
        <ele>109</ele>
        <time>2000-01-01T02:00:48.000Z</time>
      </trkpt>
      <trkpt lat="47.52055" lon="1.16549">
        <ele>107</ele>
        <time>2000-01-01T02:00:58.000Z</time>
      </trkpt>
      <trkpt lat="47.52026" lon="1.16509">
        <ele>112</ele>
        <time>2000-01-01T02:01:08.000Z</time>
      </trkpt>
      <trkpt lat="47.51974" lon="1.16436">
        <ele>114</ele>
        <time>2000-01-01T02:01:18.000Z</time>
      </trkpt>
      <trkpt lat="47.51948" lon="1.16452">
        <ele>116</ele>
        <time>2000-01-01T02:01:28.000Z</time>
      </trkpt>
      <trkpt lat="47.51907" lon="1.16479">
        <ele>116</ele>
        <time>2000-01-01T02:01:38.000Z</time>
      </trkpt>
      <trkpt lat="47.51876" lon="1.1648">
        <ele>109</ele>
        <time>2000-01-01T02:01:48.000Z</time>
      </trkpt>
      <trkpt lat="47.51844" lon="1.1648">
        <ele>107</ele>
        <time>2000-01-01T02:01:58.000Z</time>
      </trkpt>
      <trkpt lat="47.51805" lon="1.16481">
        <ele>102</ele>
        <time>2000-01-01T02:02:08.000Z</time>
      </trkpt>
      <trkpt lat="47.51768" lon="1.16475">
        <ele>98</ele>
        <time>2000-01-01T02:02:18.000Z</time>
      </trkpt>
      <trkpt lat="47.51732" lon="1.16469">
        <ele>83</ele>
        <time>2000-01-01T02:02:28.000Z</time>
      </trkpt>
      <trkpt lat="47.51695" lon="1.16464">
        <ele>85</ele>
        <time>2000-01-01T02:02:38.000Z</time>
      </trkpt>
      <trkpt lat="47.51658" lon="1.16458">
        <ele>88</ele>
        <time>2000-01-01T02:02:48.000Z</time>
      </trkpt>
      <trkpt lat="47.51607" lon="1.1645">
        <ele>106</ele>
        <time>2000-01-01T02:02:58.000Z</time>
      </trkpt>
      <trkpt lat="47.51568" lon="1.16458">
        <ele>106</ele>
        <time>2000-01-01T02:03:08.000Z</time>
      </trkpt>
      <trkpt lat="47.51529" lon="1.16466">
        <ele>102</ele>
        <time>2000-01-01T02:03:18.000Z</time>
      </trkpt>
      <trkpt lat="47.5149" lon="1.16474">
        <ele>101</ele>
        <time>2000-01-01T02:03:28.000Z</time>
      </trkpt>
      <trkpt lat="47.51452" lon="1.16482">
        <ele>101</ele>
        <time>2000-01-01T02:03:38.000Z</time>
      </trkpt>
      <trkpt lat="47.51413" lon="1.1649">
        <ele>95</ele>
        <time>2000-01-01T02:03:48.000Z</time>
      </trkpt>
      <trkpt lat="47.51374" lon="1.16498">
        <ele>94</ele>
        <time>2000-01-01T02:03:58.000Z</time>
      </trkpt>
      <trkpt lat="47.5132" lon="1.16509">
        <ele>94</ele>
        <time>2000-01-01T02:04:08.000Z</time>
      </trkpt>
      <trkpt lat="47.51343" lon="1.16544">
        <ele>95</ele>
        <time>2000-01-01T02:04:18.000Z</time>
      </trkpt>
      <trkpt lat="47.51365" lon="1.1658">
        <ele>100</ele>
        <time>2000-01-01T02:04:28.000Z</time>
      </trkpt>
      <trkpt lat="47.51399" lon="1.16634">
        <ele>100</ele>
        <time>2000-01-01T02:04:38.000Z</time>
      </trkpt>
      <trkpt lat="47.51414" lon="1.16664">
        <ele>100</ele>
        <time>2000-01-01T02:04:48.000Z</time>
      </trkpt>
      <trkpt lat="47.51433" lon="1.16702">
        <ele>102</ele>
        <time>2000-01-01T02:04:58.000Z</time>
      </trkpt>
      <trkpt lat="47.51441" lon="1.16744">
        <ele>101</ele>
        <time>2000-01-01T02:05:08.000Z</time>
      </trkpt>
      <trkpt lat="47.51453" lon="1.16817">
        <ele>101</ele>
        <time>2000-01-01T02:05:18.000Z</time>
      </trkpt>
      <trkpt lat="47.51451" lon="1.16853">
        <ele>100</ele>
        <time>2000-01-01T02:05:28.000Z</time>
      </trkpt>
      <trkpt lat="47.51448" lon="1.16897">
        <ele>101</ele>
        <time>2000-01-01T02:05:38.000Z</time>
      </trkpt>
      <trkpt lat="47.51407" lon="1.16912">
        <ele>102</ele>
        <time>2000-01-01T02:05:48.000Z</time>
      </trkpt>
      <trkpt lat="47.51372" lon="1.16901">
        <ele>102</ele>
        <time>2000-01-01T02:05:58.000Z</time>
      </trkpt>
      <trkpt lat="47.51337" lon="1.1689">
        <ele>102</ele>
        <time>2000-01-01T02:06:08.000Z</time>
      </trkpt>
      <trkpt lat="47.51302" lon="1.16879">
        <ele>100</ele>
        <time>2000-01-01T02:06:18.000Z</time>
      </trkpt>
      <trkpt lat="47.51239" lon="1.1686">
        <ele>103</ele>
        <time>2000-01-01T02:06:28.000Z</time>
      </trkpt>
      <trkpt lat="47.512" lon="1.16866">
        <ele>103</ele>
        <time>2000-01-01T02:06:38.000Z</time>
      </trkpt>
      <trkpt lat="47.5116" lon="1.16873">
        <ele>103</ele>
        <time>2000-01-01T02:06:48.000Z</time>
      </trkpt>
      <trkpt lat="47.5112" lon="1.16879">
        <ele>101</ele>
        <time>2000-01-01T02:06:58.000Z</time>
      </trkpt>
      <trkpt lat="47.51081" lon="1.16886">
        <ele>99</ele>
        <time>2000-01-01T02:07:08.000Z</time>
      </trkpt>
      <trkpt lat="47.51041" lon="1.16892">
        <ele>97</ele>
        <time>2000-01-01T02:07:18.000Z</time>
      </trkpt>
      <trkpt lat="47.51002" lon="1.16899">
        <ele>95</ele>
        <time>2000-01-01T02:07:28.000Z</time>
      </trkpt>
      <trkpt lat="47.50962" lon="1.16905">
        <ele>91</ele>
        <time>2000-01-01T02:07:38.000Z</time>
      </trkpt>
      <trkpt lat="47.5092" lon="1.16912">
        <ele>91</ele>
        <time>2000-01-01T02:07:48.000Z</time>
      </trkpt>
      <trkpt lat="47.50892" lon="1.16892">
        <ele>100</ele>
        <time>2000-01-01T02:07:58.000Z</time>
      </trkpt>
      <trkpt lat="47.50864" lon="1.16871">
        <ele>96</ele>
        <time>2000-01-01T02:08:08.000Z</time>
      </trkpt>
      <trkpt lat="47.5083" lon="1.16846">
        <ele>95</ele>
        <time>2000-01-01T02:08:18.000Z</time>
      </trkpt>
      <trkpt lat="47.50795" lon="1.16856">
        <ele>95</ele>
        <time>2000-01-01T02:08:28.000Z</time>
      </trkpt>
      <trkpt lat="47.50759" lon="1.16865">
        <ele>96</ele>
        <time>2000-01-01T02:08:38.000Z</time>
      </trkpt>
      <trkpt lat="47.50724" lon="1.16875">
        <ele>94</ele>
        <time>2000-01-01T02:08:48.000Z</time>
      </trkpt>
      <trkpt lat="47.50663" lon="1.16891">
        <ele>96</ele>
        <time>2000-01-01T02:08:58.000Z</time>
      </trkpt>
      <trkpt lat="47.50629" lon="1.16912">
        <ele>99</ele>
        <time>2000-01-01T02:09:08.000Z</time>
      </trkpt>
      <trkpt lat="47.50594" lon="1.16933">
        <ele>106</ele>
        <time>2000-01-01T02:09:18.000Z</time>
      </trkpt>
      <trkpt lat="47.50559" lon="1.16954">
        <ele>106</ele>
        <time>2000-01-01T02:09:28.000Z</time>
      </trkpt>
      <trkpt lat="47.50525" lon="1.16975">
        <ele>105</ele>
        <time>2000-01-01T02:09:38.000Z</time>
      </trkpt>
      <trkpt lat="47.50469" lon="1.17009">
        <ele>105</ele>
        <time>2000-01-01T02:09:48.000Z</time>
      </trkpt>
      <trkpt lat="47.50454" lon="1.16972">
        <ele>100</ele>
        <time>2000-01-01T02:09:58.000Z</time>
      </trkpt>
      <trkpt lat="47.50427" lon="1.16905">
        <ele>96</ele>
        <time>2000-01-01T02:10:08.000Z</time>
      </trkpt>
      <trkpt lat="47.50405" lon="1.16929">
        <ele>93</ele>
        <time>2000-01-01T02:10:18.000Z</time>
      </trkpt>
      <trkpt lat="47.50372" lon="1.16964">
        <ele>91</ele>
        <time>2000-01-01T02:10:28.000Z</time>
      </trkpt>
      <trkpt lat="47.50344" lon="1.16987">
        <ele>89</ele>
        <time>2000-01-01T02:10:38.000Z</time>
      </trkpt>
      <trkpt lat="47.50315" lon="1.1701">
        <ele>78</ele>
        <time>2000-01-01T02:10:48.000Z</time>
      </trkpt>
      <trkpt lat="47.50272" lon="1.17044">
        <ele>72</ele>
        <time>2000-01-01T02:10:58.000Z</time>
      </trkpt>
      <trkpt lat="47.50279" lon="1.16996">
        <ele>71</ele>
        <time>2000-01-01T02:11:08.000Z</time>
      </trkpt>
      <trkpt lat="47.50286" lon="1.16949">
        <ele>70</ele>
        <time>2000-01-01T02:11:18.000Z</time>
      </trkpt>
      <trkpt lat="47.50297" lon="1.16874">
        <ele>72</ele>
        <time>2000-01-01T02:11:28.000Z</time>
      </trkpt>
      <trkpt lat="47.50309" lon="1.16819">
        <ele>74</ele>
        <time>2000-01-01T02:11:38.000Z</time>
      </trkpt>
      <trkpt lat="47.50314" lon="1.1678">
        <ele>75</ele>
        <time>2000-01-01T02:11:48.000Z</time>
      </trkpt>
      <trkpt lat="47.50321" lon="1.16724">
        <ele>78</ele>
        <time>2000-01-01T02:11:58.000Z</time>
      </trkpt>
      <trkpt lat="47.50322" lon="1.1669">
        <ele>82</ele>
        <time>2000-01-01T02:12:08.000Z</time>
      </trkpt>
      <trkpt lat="47.50324" lon="1.16655">
        <ele>84</ele>
        <time>2000-01-01T02:12:18.000Z</time>
      </trkpt>
      <trkpt lat="47.5032" lon="1.16613">
        <ele>79</ele>
        <time>2000-01-01T02:12:28.000Z</time>
      </trkpt>
      <trkpt lat="47.50313" lon="1.16544">
        <ele>82</ele>
        <time>2000-01-01T02:12:38.000Z</time>
      </trkpt>
      <trkpt lat="47.50349" lon="1.16585">
        <ele>85</ele>
        <time>2000-01-01T02:12:48.000Z</time>
      </trkpt>
      <trkpt lat="47.50383" lon="1.16623">
        <ele>87</ele>
        <time>2000-01-01T02:12:58.000Z</time>
      </trkpt>
      <trkpt lat="47.50399" lon="1.16583">
        <ele>89</ele>
        <time>2000-01-01T02:13:08.000Z</time>
      </trkpt>
      <trkpt lat="47.50379" lon="1.16552">
        <ele>84</ele>
        <time>2000-01-01T02:13:18.000Z</time>
      </trkpt>
      <trkpt lat="47.50345" lon="1.165">
        <ele>83</ele>
        <time>2000-01-01T02:13:28.000Z</time>
      </trkpt>
      <trkpt lat="47.50371" lon="1.16498">
        <ele>82</ele>
        <time>2000-01-01T02:13:38.000Z</time>
      </trkpt>
      <trkpt lat="47.50405" lon="1.16496">
        <ele>80</ele>
        <time>2000-01-01T02:13:48.000Z</time>
      </trkpt>
      <trkpt lat="47.50431" lon="1.16474">
        <ele>83</ele>
        <time>2000-01-01T02:13:58.000Z</time>
      </trkpt>
      <trkpt lat="47.50458" lon="1.16452">
        <ele>82</ele>
        <time>2000-01-01T02:14:08.000Z</time>
      </trkpt>
      <trkpt lat="47.50487" lon="1.16428">
        <ele>82</ele>
        <time>2000-01-01T02:14:18.000Z</time>
      </trkpt>
      <trkpt lat="47.50506" lon="1.16369">
        <ele>86</ele>
        <time>2000-01-01T02:14:28.000Z</time>
      </trkpt>
      <trkpt lat="47.50496" lon="1.16332">
        <ele>87</ele>
        <time>2000-01-01T02:14:38.000Z</time>
      </trkpt>
      <trkpt lat="47.50481" lon="1.16277">
        <ele>88</ele>
        <time>2000-01-01T02:14:48.000Z</time>
      </trkpt>
      <trkpt lat="47.50465" lon="1.1625">
        <ele>89</ele>
        <time>2000-01-01T02:14:58.000Z</time>
      </trkpt>
      <trkpt lat="47.50444" lon="1.16216">
        <ele>92</ele>
        <time>2000-01-01T02:15:08.000Z</time>
      </trkpt>
      <trkpt lat="47.5042" lon="1.16196">
        <ele>96</ele>
        <time>2000-01-01T02:15:18.000Z</time>
      </trkpt>
      <trkpt lat="47.50382" lon="1.16164">
        <ele>100</ele>
        <time>2000-01-01T02:15:28.000Z</time>
      </trkpt>
      <trkpt lat="47.5036" lon="1.16197">
        <ele>100</ele>
        <time>2000-01-01T02:15:38.000Z</time>
      </trkpt>
      <trkpt lat="47.50338" lon="1.16229">
        <ele>98</ele>
        <time>2000-01-01T02:15:48.000Z</time>
      </trkpt>
      <trkpt lat="47.50314" lon="1.16265">
        <ele>96</ele>
        <time>2000-01-01T02:15:58.000Z</time>
      </trkpt>
      <trkpt lat="47.5029" lon="1.16295">
        <ele>93</ele>
        <time>2000-01-01T02:16:08.000Z</time>
      </trkpt>
      <trkpt lat="47.50267" lon="1.16324">
        <ele>78</ele>
        <time>2000-01-01T02:16:18.000Z</time>
      </trkpt>
      <trkpt lat="47.50242" lon="1.16356">
        <ele>81</ele>
        <time>2000-01-01T02:16:28.000Z</time>
      </trkpt>
      <trkpt lat="47.50229" lon="1.16401">
        <ele>78</ele>
        <time>2000-01-01T02:16:38.000Z</time>
      </trkpt>
      <trkpt lat="47.50215" lon="1.16446">
        <ele>84</ele>
        <time>2000-01-01T02:16:48.000Z</time>
      </trkpt>
      <trkpt lat="47.50193" lon="1.16519">
        <ele>82</ele>
        <time>2000-01-01T02:16:58.000Z</time>
      </trkpt>
      <trkpt lat="47.5019" lon="1.16563">
        <ele>81</ele>
        <time>2000-01-01T02:17:08.000Z</time>
      </trkpt>
      <trkpt lat="47.50185" lon="1.16642">
        <ele>80</ele>
        <time>2000-01-01T02:17:18.000Z</time>
      </trkpt>
      <trkpt lat="47.50183" lon="1.16681">
        <ele>82</ele>
        <time>2000-01-01T02:17:28.000Z</time>
      </trkpt>
      <trkpt lat="47.50179" lon="1.16733">
        <ele>81</ele>
        <time>2000-01-01T02:17:38.000Z</time>
      </trkpt>
      <trkpt lat="47.50165" lon="1.16718">
        <ele>73.9</ele>
        <time>2000-01-01T02:17:48.000Z</time>
      </trkpt>
      <trkpt lat="47.50158" lon="1.16663">
        <ele>81</ele>
        <time>2000-01-01T02:17:58.000Z</time>
      </trkpt>
      <trkpt lat="47.50137" lon="1.16647">
        <ele>83</ele>
        <time>2000-01-01T02:18:08.000Z</time>
      </trkpt>
      <trkpt lat="47.50114" lon="1.16629">
        <ele>87</ele>
        <time>2000-01-01T02:18:18.000Z</time>
      </trkpt>
      <trkpt lat="47.50093" lon="1.166">
        <ele>93</ele>
        <time>2000-01-01T02:18:28.000Z</time>
      </trkpt>
      <trkpt lat="47.50056" lon="1.16549">
        <ele>91</ele>
        <time>2000-01-01T02:18:38.000Z</time>
      </trkpt>
      <trkpt lat="47.50033" lon="1.16577">
        <ele>91</ele>
        <time>2000-01-01T02:18:48.000Z</time>
      </trkpt>
      <trkpt lat="47.49988" lon="1.16633">
        <ele>92</ele>
        <time>2000-01-01T02:18:58.000Z</time>
      </trkpt>
      <trkpt lat="47.49966" lon="1.16659">
        <ele>92</ele>
        <time>2000-01-01T02:19:08.000Z</time>
      </trkpt>
      <trkpt lat="47.49934" lon="1.16699">
        <ele>90</ele>
        <time>2000-01-01T02:19:18.000Z</time>
      </trkpt>
      <trkpt lat="47.49922" lon="1.16644">
        <ele>88</ele>
        <time>2000-01-01T02:19:28.000Z</time>
      </trkpt>
      <trkpt lat="47.4991" lon="1.16589">
        <ele>90</ele>
        <time>2000-01-01T02:19:38.000Z</time>
      </trkpt>
      <trkpt lat="47.49898" lon="1.16534">
        <ele>90</ele>
        <time>2000-01-01T02:19:48.000Z</time>
      </trkpt>
      <trkpt lat="47.49886" lon="1.1648">
        <ele>87</ele>
        <time>2000-01-01T02:19:58.000Z</time>
      </trkpt>
      <trkpt lat="47.49874" lon="1.16425">
        <ele>88</ele>
        <time>2000-01-01T02:20:08.000Z</time>
      </trkpt>
      <trkpt lat="47.49851" lon="1.16322">
        <ele>88</ele>
        <time>2000-01-01T02:20:18.000Z</time>
      </trkpt>
      <trkpt lat="47.49844" lon="1.16287">
        <ele>89</ele>
        <time>2000-01-01T02:20:28.000Z</time>
      </trkpt>
      <trkpt lat="47.49835" lon="1.16245">
        <ele>89</ele>
        <time>2000-01-01T02:20:38.000Z</time>
      </trkpt>
      <trkpt lat="47.49833" lon="1.16195">
        <ele>88</ele>
        <time>2000-01-01T02:20:48.000Z</time>
      </trkpt>
      <trkpt lat="47.4983" lon="1.16144">
        <ele>87</ele>
        <time>2000-01-01T02:20:58.000Z</time>
      </trkpt>
      <trkpt lat="47.49825" lon="1.16044">
        <ele>90</ele>
        <time>2000-01-01T02:21:08.000Z</time>
      </trkpt>
      <trkpt lat="47.49839" lon="1.16016">
        <ele>93</ele>
        <time>2000-01-01T02:21:18.000Z</time>
      </trkpt>
      <trkpt lat="47.4986" lon="1.15989">
        <ele>94</ele>
        <time>2000-01-01T02:21:28.000Z</time>
      </trkpt>
      <trkpt lat="47.49894" lon="1.15947">
        <ele>98</ele>
        <time>2000-01-01T02:21:38.000Z</time>
      </trkpt>
      <trkpt lat="47.49891" lon="1.15908">
        <ele>98</ele>
        <time>2000-01-01T02:21:48.000Z</time>
      </trkpt>
      <trkpt lat="47.49886" lon="1.15852">
        <ele>96</ele>
        <time>2000-01-01T02:21:58.000Z</time>
      </trkpt>
      <trkpt lat="47.49893" lon="1.15808">
        <ele>95</ele>
        <time>2000-01-01T02:22:08.000Z</time>
      </trkpt>
      <trkpt lat="47.49901" lon="1.15764">
        <ele>95</ele>
        <time>2000-01-01T02:22:18.000Z</time>
      </trkpt>
      <trkpt lat="47.49909" lon="1.15715">
        <ele>95</ele>
        <time>2000-01-01T02:22:28.000Z</time>
      </trkpt>
      <trkpt lat="47.49892" lon="1.15677">
        <ele>98</ele>
        <time>2000-01-01T02:22:38.000Z</time>
      </trkpt>
      <trkpt lat="47.4986" lon="1.15602">
        <ele>98</ele>
        <time>2000-01-01T02:22:48.000Z</time>
      </trkpt>
      <trkpt lat="47.49847" lon="1.15565">
        <ele>98</ele>
        <time>2000-01-01T02:22:58.000Z</time>
      </trkpt>
      <trkpt lat="47.49825" lon="1.15506">
        <ele>99</ele>
        <time>2000-01-01T02:23:08.000Z</time>
      </trkpt>
      <trkpt lat="47.49846" lon="1.15469">
        <ele>101</ele>
        <time>2000-01-01T02:23:18.000Z</time>
      </trkpt>
      <trkpt lat="47.49847" lon="1.15439">
        <ele>101</ele>
        <time>2000-01-01T02:23:28.000Z</time>
      </trkpt>
      <trkpt lat="47.49866" lon="1.15414">
        <ele>100</ele>
        <time>2000-01-01T02:23:38.000Z</time>
      </trkpt>
      <trkpt lat="47.49891" lon="1.1538">
        <ele>105</ele>
        <time>2000-01-01T02:23:48.000Z</time>
      </trkpt>
      <trkpt lat="47.49875" lon="1.15339">
        <ele>102</ele>
        <time>2000-01-01T02:23:58.000Z</time>
      </trkpt>
      <trkpt lat="47.49859" lon="1.15297">
        <ele>99</ele>
        <time>2000-01-01T02:24:08.000Z</time>
      </trkpt>
      <trkpt lat="47.49835" lon="1.15236">
        <ele>96</ele>
        <time>2000-01-01T02:24:18.000Z</time>
      </trkpt>
      <trkpt lat="47.49822" lon="1.15224">
        <ele>91.3</ele>
        <time>2000-01-01T02:24:28.000Z</time>
      </trkpt>
      <trkpt lat="47.49789" lon="1.15108">
        <ele>97</ele>
        <time>2000-01-01T02:24:38.000Z</time>
      </trkpt>
      <trkpt lat="47.49773" lon="1.15064">
        <ele>99</ele>
        <time>2000-01-01T02:24:48.000Z</time>
      </trkpt>
      <trkpt lat="47.49757" lon="1.15021">
        <ele>97</ele>
        <time>2000-01-01T02:24:58.000Z</time>
      </trkpt>
      <trkpt lat="47.49727" lon="1.14942">
        <ele>95</ele>
        <time>2000-01-01T02:25:08.000Z</time>
      </trkpt>
      <trkpt lat="47.4972" lon="1.14901">
        <ele>91</ele>
        <time>2000-01-01T02:25:18.000Z</time>
      </trkpt>
      <trkpt lat="47.49706" lon="1.14826">
        <ele>95</ele>
        <time>2000-01-01T02:25:28.000Z</time>
      </trkpt>
      <trkpt lat="47.49696" lon="1.14781">
        <ele>94</ele>
        <time>2000-01-01T02:25:38.000Z</time>
      </trkpt>
      <trkpt lat="47.49686" lon="1.14737">
        <ele>95</ele>
        <time>2000-01-01T02:25:48.000Z</time>
      </trkpt>
      <trkpt lat="47.49674" lon="1.14683">
        <ele>91</ele>
        <time>2000-01-01T02:25:58.000Z</time>
      </trkpt>
      <trkpt lat="47.49681" lon="1.14643">
        <ele>92</ele>
        <time>2000-01-01T02:26:08.000Z</time>
      </trkpt>
      <trkpt lat="47.49691" lon="1.14581">
        <ele>94</ele>
        <time>2000-01-01T02:26:18.000Z</time>
      </trkpt>
      <trkpt lat="47.49683" lon="1.14572">
        <ele>97</ele>
        <time>2000-01-01T02:26:28.000Z</time>
      </trkpt>
      <trkpt lat="47.4979" lon="1.14422">
        <ele>94</ele>
        <time>2000-01-01T02:26:38.000Z</time>
      </trkpt>
      <trkpt lat="47.49812" lon="1.14395">
        <ele>95</ele>
        <time>2000-01-01T02:26:48.000Z</time>
      </trkpt>
      <trkpt lat="47.49848" lon="1.14351">
        <ele>96</ele>
        <time>2000-01-01T02:26:58.000Z</time>
      </trkpt>
      <trkpt lat="47.49884" lon="1.14326">
        <ele>96</ele>
        <time>2000-01-01T02:27:08.000Z</time>
      </trkpt>
      <trkpt lat="47.49919" lon="1.14302">
        <ele>86</ele>
        <time>2000-01-01T02:27:18.000Z</time>
      </trkpt>
      <trkpt lat="47.49955" lon="1.14277">
        <ele>86</ele>
        <time>2000-01-01T02:27:28.000Z</time>
      </trkpt>
      <trkpt lat="47.4999" lon="1.14252">
        <ele>97</ele>
        <time>2000-01-01T02:27:38.000Z</time>
      </trkpt>
      <trkpt lat="47.50025" lon="1.14227">
        <ele>97</ele>
        <time>2000-01-01T02:27:48.000Z</time>
      </trkpt>
      <trkpt lat="47.50061" lon="1.14202">
        <ele>98</ele>
        <time>2000-01-01T02:27:58.000Z</time>
      </trkpt>
      <trkpt lat="47.50101" lon="1.14173">
        <ele>104</ele>
        <time>2000-01-01T02:28:08.000Z</time>
      </trkpt>
      <trkpt lat="47.5013" lon="1.14155">
        <ele>111</ele>
        <time>2000-01-01T02:28:18.000Z</time>
      </trkpt>
      <trkpt lat="47.50159" lon="1.14137">
        <ele>111</ele>
        <time>2000-01-01T02:28:28.000Z</time>
      </trkpt>
      <trkpt lat="47.50193" lon="1.14116">
        <ele>109</ele>
        <time>2000-01-01T02:28:38.000Z</time>
      </trkpt>
      <trkpt lat="47.50228" lon="1.14093">
        <ele>111</ele>
        <time>2000-01-01T02:28:48.000Z</time>
      </trkpt>
      <trkpt lat="47.50262" lon="1.1407">
        <ele>108</ele>
        <time>2000-01-01T02:28:58.000Z</time>
      </trkpt>
      <trkpt lat="47.50297" lon="1.14046">
        <ele>105</ele>
        <time>2000-01-01T02:29:08.000Z</time>
      </trkpt>
      <trkpt lat="47.50332" lon="1.14023">
        <ele>111</ele>
        <time>2000-01-01T02:29:18.000Z</time>
      </trkpt>
      <trkpt lat="47.50367" lon="1.14">
        <ele>111</ele>
        <time>2000-01-01T02:29:28.000Z</time>
      </trkpt>
      <trkpt lat="47.50411" lon="1.13971">
        <ele>112</ele>
        <time>2000-01-01T02:29:38.000Z</time>
      </trkpt>
      <trkpt lat="47.50442" lon="1.13966">
        <ele>113</ele>
        <time>2000-01-01T02:29:48.000Z</time>
      </trkpt>
      <trkpt lat="47.50429" lon="1.1392">
        <ele>114</ele>
        <time>2000-01-01T02:29:58.000Z</time>
      </trkpt>
      <trkpt lat="47.50416" lon="1.13873">
        <ele>114</ele>
        <time>2000-01-01T02:30:08.000Z</time>
      </trkpt>
      <trkpt lat="47.50402" lon="1.13827">
        <ele>114</ele>
        <time>2000-01-01T02:30:18.000Z</time>
      </trkpt>
      <trkpt lat="47.50389" lon="1.1378">
        <ele>111</ele>
        <time>2000-01-01T02:30:28.000Z</time>
      </trkpt>
      <trkpt lat="47.50425" lon="1.13754">
        <ele>110</ele>
        <time>2000-01-01T02:30:38.000Z</time>
      </trkpt>
      <trkpt lat="47.50462" lon="1.13728">
        <ele>109</ele>
        <time>2000-01-01T02:30:48.000Z</time>
      </trkpt>
      <trkpt lat="47.50498" lon="1.13702">
        <ele>109</ele>
        <time>2000-01-01T02:30:58.000Z</time>
      </trkpt>
      <trkpt lat="47.50535" lon="1.13676">
        <ele>109</ele>
        <time>2000-01-01T02:31:08.000Z</time>
      </trkpt>
      <trkpt lat="47.50571" lon="1.1365">
        <ele>107</ele>
        <time>2000-01-01T02:31:18.000Z</time>
      </trkpt>
      <trkpt lat="47.50608" lon="1.13624">
        <ele>109</ele>
        <time>2000-01-01T02:31:28.000Z</time>
      </trkpt>
      <trkpt lat="47.50644" lon="1.13598">
        <ele>107</ele>
        <time>2000-01-01T02:31:38.000Z</time>
      </trkpt>
      <trkpt lat="47.50681" lon="1.13572">
        <ele>107</ele>
        <time>2000-01-01T02:31:48.000Z</time>
      </trkpt>
      <trkpt lat="47.50718" lon="1.13546">
        <ele>107</ele>
        <time>2000-01-01T02:31:58.000Z</time>
      </trkpt>
      <trkpt lat="47.50712" lon="1.13496">
        <ele>104</ele>
        <time>2000-01-01T02:32:08.000Z</time>
      </trkpt>
      <trkpt lat="47.50705" lon="1.13447">
        <ele>101</ele>
        <time>2000-01-01T02:32:18.000Z</time>
      </trkpt>
      <trkpt lat="47.50693" lon="1.13351">
        <ele>103</ele>
        <time>2000-01-01T02:32:28.000Z</time>
      </trkpt>
      <trkpt lat="47.50699" lon="1.1331">
        <ele>106</ele>
        <time>2000-01-01T02:32:38.000Z</time>
      </trkpt>
      <trkpt lat="47.50708" lon="1.13245">
        <ele>110</ele>
        <time>2000-01-01T02:32:48.000Z</time>
      </trkpt>
      <trkpt lat="47.50728" lon="1.13223">
        <ele>110</ele>
        <time>2000-01-01T02:32:58.000Z</time>
      </trkpt>
      <trkpt lat="47.50754" lon="1.13194">
        <ele>109</ele>
        <time>2000-01-01T02:33:08.000Z</time>
      </trkpt>
      <trkpt lat="47.50778" lon="1.13184">
        <ele>109</ele>
        <time>2000-01-01T02:33:18.000Z</time>
      </trkpt>
      <trkpt lat="47.50806" lon="1.13172">
        <ele>105</ele>
        <time>2000-01-01T02:33:28.000Z</time>
      </trkpt>
      <trkpt lat="47.50833" lon="1.13178">
        <ele>104</ele>
        <time>2000-01-01T02:33:38.000Z</time>
      </trkpt>
      <trkpt lat="47.5087" lon="1.13185">
        <ele>104</ele>
        <time>2000-01-01T02:33:48.000Z</time>
      </trkpt>
      <trkpt lat="47.50896" lon="1.1319">
        <ele>106</ele>
        <time>2000-01-01T02:33:58.000Z</time>
      </trkpt>
      <trkpt lat="47.50931" lon="1.13196">
        <ele>104</ele>
        <time>2000-01-01T02:34:08.000Z</time>
      </trkpt>
      <trkpt lat="47.50952" lon="1.13173">
        <ele>102</ele>
        <time>2000-01-01T02:34:18.000Z</time>
      </trkpt>
      <trkpt lat="47.5098" lon="1.13142">
        <ele>99</ele>
        <time>2000-01-01T02:34:28.000Z</time>
      </trkpt>
      <trkpt lat="47.51001" lon="1.13106">
        <ele>97</ele>
        <time>2000-01-01T02:34:38.000Z</time>
      </trkpt>
      <trkpt lat="47.51022" lon="1.13069">
        <ele>99</ele>
        <time>2000-01-01T02:34:48.000Z</time>
      </trkpt>
      <trkpt lat="47.51053" lon="1.13016">
        <ele>101</ele>
        <time>2000-01-01T02:34:58.000Z</time>
      </trkpt>
      <trkpt lat="47.51076" lon="1.13054">
        <ele>101</ele>
        <time>2000-01-01T02:35:08.000Z</time>
      </trkpt>
      <trkpt lat="47.51098" lon="1.13093">
        <ele>106</ele>
        <time>2000-01-01T02:35:18.000Z</time>
      </trkpt>
      <trkpt lat="47.51121" lon="1.13131">
        <ele>105</ele>
        <time>2000-01-01T02:35:28.000Z</time>
      </trkpt>
      <trkpt lat="47.51148" lon="1.13177">
        <ele>104</ele>
        <time>2000-01-01T02:35:38.000Z</time>
      </trkpt>
      <trkpt lat="47.51175" lon="1.13146">
        <ele>104</ele>
        <time>2000-01-01T02:35:48.000Z</time>
      </trkpt>
      <trkpt lat="47.51202" lon="1.13116">
        <ele>104</ele>
        <time>2000-01-01T02:35:58.000Z</time>
      </trkpt>
      <trkpt lat="47.51251" lon="1.13061">
        <ele>102</ele>
        <time>2000-01-01T02:36:08.000Z</time>
      </trkpt>
      <trkpt lat="47.51267" lon="1.13086">
        <ele>97</ele>
        <time>2000-01-01T02:36:18.000Z</time>
      </trkpt>
      <trkpt lat="47.51283" lon="1.13112">
        <ele>93</ele>
        <time>2000-01-01T02:36:28.000Z</time>
      </trkpt>
      <trkpt lat="47.51307" lon="1.13077">
        <ele>95</ele>
        <time>2000-01-01T02:36:38.000Z</time>
      </trkpt>
      <trkpt lat="47.51331" lon="1.13042">
        <ele>95</ele>
        <time>2000-01-01T02:36:48.000Z</time>
      </trkpt>
      <trkpt lat="47.51376" lon="1.12977">
        <ele>96</ele>
        <time>2000-01-01T02:36:58.000Z</time>
      </trkpt>
      <trkpt lat="47.51397" lon="1.13018">
        <ele>105</ele>
        <time>2000-01-01T02:37:08.000Z</time>
      </trkpt>
      <trkpt lat="47.51419" lon="1.1306">
        <ele>106</ele>
        <time>2000-01-01T02:37:18.000Z</time>
      </trkpt>
      <trkpt lat="47.51441" lon="1.13101">
        <ele>106</ele>
        <time>2000-01-01T02:37:28.000Z</time>
      </trkpt>
      <trkpt lat="47.51471" lon="1.1316">
        <ele>106</ele>
        <time>2000-01-01T02:37:38.000Z</time>
      </trkpt>
      <trkpt lat="47.51491" lon="1.13197">
        <ele>105</ele>
        <time>2000-01-01T02:37:48.000Z</time>
      </trkpt>
      <trkpt lat="47.5151" lon="1.13235">
        <ele>104</ele>
        <time>2000-01-01T02:37:58.000Z</time>
      </trkpt>
      <trkpt lat="47.51537" lon="1.13286">
        <ele>101</ele>
        <time>2000-01-01T02:38:08.000Z</time>
      </trkpt>
      <trkpt lat="47.5155" lon="1.13339">
        <ele>100</ele>
        <time>2000-01-01T02:38:18.000Z</time>
      </trkpt>
      <trkpt lat="47.51564" lon="1.13392">
        <ele>100</ele>
        <time>2000-01-01T02:38:28.000Z</time>
      </trkpt>
      <trkpt lat="47.51578" lon="1.13445">
        <ele>98</ele>
        <time>2000-01-01T02:38:38.000Z</time>
      </trkpt>
      <trkpt lat="47.51592" lon="1.13499">
        <ele>97</ele>
        <time>2000-01-01T02:38:48.000Z</time>
      </trkpt>
      <trkpt lat="47.51606" lon="1.13552">
        <ele>100</ele>
        <time>2000-01-01T02:38:58.000Z</time>
      </trkpt>
      <trkpt lat="47.51625" lon="1.13627">
        <ele>101</ele>
        <time>2000-01-01T02:39:08.000Z</time>
      </trkpt>
      <trkpt lat="47.51634" lon="1.13686">
        <ele>101</ele>
        <time>2000-01-01T02:39:18.000Z</time>
      </trkpt>
      <trkpt lat="47.51642" lon="1.13744">
        <ele>100</ele>
        <time>2000-01-01T02:39:28.000Z</time>
      </trkpt>
      <trkpt lat="47.5165" lon="1.13803">
        <ele>100</ele>
        <time>2000-01-01T02:39:38.000Z</time>
      </trkpt>
      <trkpt lat="47.51659" lon="1.13861">
        <ele>100</ele>
        <time>2000-01-01T02:39:48.000Z</time>
      </trkpt>
      <trkpt lat="47.51667" lon="1.1392">
        <ele>98</ele>
        <time>2000-01-01T02:39:58.000Z</time>
      </trkpt>
      <trkpt lat="47.51676" lon="1.13978">
        <ele>98</ele>
        <time>2000-01-01T02:40:08.000Z</time>
      </trkpt>
      <trkpt lat="47.51684" lon="1.14037">
        <ele>95</ele>
        <time>2000-01-01T02:40:18.000Z</time>
      </trkpt>
      <trkpt lat="47.517" lon="1.14146">
        <ele>94</ele>
        <time>2000-01-01T02:40:28.000Z</time>
      </trkpt>
      <trkpt lat="47.51697" lon="1.14197">
        <ele>93</ele>
        <time>2000-01-01T02:40:38.000Z</time>
      </trkpt>
      <trkpt lat="47.51694" lon="1.14247">
        <ele>93</ele>
        <time>2000-01-01T02:40:48.000Z</time>
      </trkpt>
      <trkpt lat="47.51691" lon="1.14298">
        <ele>91</ele>
        <time>2000-01-01T02:40:58.000Z</time>
      </trkpt>
      <trkpt lat="47.51689" lon="1.1435">
        <ele>90</ele>
        <time>2000-01-01T02:41:08.000Z</time>
      </trkpt>
      <trkpt lat="47.51674" lon="1.14377">
        <ele>90</ele>
        <time>2000-01-01T02:41:18.000Z</time>
      </trkpt>
      <trkpt lat="47.51659" lon="1.14404">
        <ele>92</ele>
        <time>2000-01-01T02:41:28.000Z</time>
      </trkpt>
      <trkpt lat="47.51652" lon="1.14445">
        <ele>93</ele>
        <time>2000-01-01T02:41:38.000Z</time>
      </trkpt>
      <trkpt lat="47.51641" lon="1.14518">
        <ele>100</ele>
        <time>2000-01-01T02:41:48.000Z</time>
      </trkpt>
      <trkpt lat="47.51625" lon="1.14543">
        <ele>102</ele>
        <time>2000-01-01T02:41:58.000Z</time>
      </trkpt>
      <trkpt lat="47.51609" lon="1.1457">
        <ele>100</ele>
        <time>2000-01-01T02:42:08.000Z</time>
      </trkpt>
      <trkpt lat="47.51592" lon="1.14612">
        <ele>99</ele>
        <time>2000-01-01T02:42:18.000Z</time>
      </trkpt>
      <trkpt lat="47.51575" lon="1.14654">
        <ele>103</ele>
        <time>2000-01-01T02:42:28.000Z</time>
      </trkpt>
      <trkpt lat="47.51548" lon="1.14724">
        <ele>103</ele>
        <time>2000-01-01T02:42:38.000Z</time>
      </trkpt>
      <trkpt lat="47.51524" lon="1.14742">
        <ele>104</ele>
        <time>2000-01-01T02:42:48.000Z</time>
      </trkpt>
      <trkpt lat="47.51489" lon="1.14769">
        <ele>103</ele>
        <time>2000-01-01T02:42:58.000Z</time>
      </trkpt>
      <trkpt lat="47.51489" lon="1.14806">
        <ele>103</ele>
        <time>2000-01-01T02:43:08.000Z</time>
      </trkpt>
      <trkpt lat="47.51489" lon="1.1485">
        <ele>102</ele>
        <time>2000-01-01T02:43:18.000Z</time>
      </trkpt>
      <trkpt lat="47.51483" lon="1.14902">
        <ele>102</ele>
        <time>2000-01-01T02:43:28.000Z</time>
      </trkpt>
      <trkpt lat="47.51476" lon="1.14955">
        <ele>100</ele>
        <time>2000-01-01T02:43:38.000Z</time>
      </trkpt>
      <trkpt lat="47.51469" lon="1.15007">
        <ele>99</ele>
        <time>2000-01-01T02:43:48.000Z</time>
      </trkpt>
      <trkpt lat="47.51458" lon="1.15097">
        <ele>92</ele>
        <time>2000-01-01T02:43:58.000Z</time>
      </trkpt>
      <trkpt lat="47.51454" lon="1.15151">
        <ele>90</ele>
        <time>2000-01-01T02:44:08.000Z</time>
      </trkpt>
      <trkpt lat="47.51425" lon="1.15187">
        <ele>90</ele>
        <time>2000-01-01T02:44:18.000Z</time>
      </trkpt>
      <trkpt lat="47.51429" lon="1.15229">
        <ele>94</ele>
        <time>2000-01-01T02:44:28.000Z</time>
      </trkpt>
      <trkpt lat="47.51436" lon="1.15301">
        <ele>99</ele>
        <time>2000-01-01T02:44:38.000Z</time>
      </trkpt>
      <trkpt lat="47.51436" lon="1.15345">
        <ele>100</ele>
        <time>2000-01-01T02:44:48.000Z</time>
      </trkpt>
      <trkpt lat="47.51434" lon="1.15434">
        <ele>103</ele>
        <time>2000-01-01T02:44:58.000Z</time>
      </trkpt>
      <trkpt lat="47.51445" lon="1.15485">
        <ele>101</ele>
        <time>2000-01-01T02:45:08.000Z</time>
      </trkpt>
      <trkpt lat="47.51457" lon="1.15537">
        <ele>100</ele>
        <time>2000-01-01T02:45:18.000Z</time>
      </trkpt>
      <trkpt lat="47.51468" lon="1.15589">
        <ele>99</ele>
        <time>2000-01-01T02:45:28.000Z</time>
      </trkpt>
      <trkpt lat="47.51479" lon="1.1564">
        <ele>95</ele>
        <time>2000-01-01T02:45:38.000Z</time>
      </trkpt>
      <trkpt lat="47.51492" lon="1.15699">
        <ele>90</ele>
        <time>2000-01-01T02:45:48.000Z</time>
      </trkpt>
      <trkpt lat="47.51463" lon="1.15739">
        <ele>91</ele>
        <time>2000-01-01T02:45:58.000Z</time>
      </trkpt>
      <trkpt lat="47.51434" lon="1.15779">
        <ele>93</ele>
        <time>2000-01-01T02:46:08.000Z</time>
      </trkpt>
      <trkpt lat="47.51405" lon="1.1582">
        <ele>93</ele>
        <time>2000-01-01T02:46:18.000Z</time>
      </trkpt>
      <trkpt lat="47.51376" lon="1.1586">
        <ele>95</ele>
        <time>2000-01-01T02:46:28.000Z</time>
      </trkpt>
      <trkpt lat="47.51347" lon="1.159">
        <ele>95</ele>
        <time>2000-01-01T02:46:38.000Z</time>
      </trkpt>
      <trkpt lat="47.51318" lon="1.15941">
        <ele>96</ele>
        <time>2000-01-01T02:46:48.000Z</time>
      </trkpt>
      <trkpt lat="47.51263" lon="1.16018">
        <ele>101</ele>
        <time>2000-01-01T02:46:58.000Z</time>
      </trkpt>
      <trkpt lat="47.51242" lon="1.16071">
        <ele>98</ele>
        <time>2000-01-01T02:47:08.000Z</time>
      </trkpt>
      <trkpt lat="47.51221" lon="1.16124">
        <ele>95</ele>
        <time>2000-01-01T02:47:18.000Z</time>
      </trkpt>
      <trkpt lat="47.512" lon="1.16178">
        <ele>93</ele>
        <time>2000-01-01T02:47:28.000Z</time>
      </trkpt>
      <trkpt lat="47.51179" lon="1.16231">
        <ele>96</ele>
        <time>2000-01-01T02:47:38.000Z</time>
      </trkpt>
      <trkpt lat="47.51158" lon="1.16285">
        <ele>93</ele>
        <time>2000-01-01T02:47:48.000Z</time>
      </trkpt>
      <trkpt lat="47.51137" lon="1.16338">
        <ele>91</ele>
        <time>2000-01-01T02:47:58.000Z</time>
      </trkpt>
      <trkpt lat="47.51116" lon="1.16392">
        <ele>96</ele>
        <time>2000-01-01T02:48:08.000Z</time>
      </trkpt>
      <trkpt lat="47.51095" lon="1.16446">
        <ele>92</ele>
        <time>2000-01-01T02:48:18.000Z</time>
      </trkpt>
      <trkpt lat="47.51074" lon="1.16499">
        <ele>95</ele>
        <time>2000-01-01T02:48:28.000Z</time>
      </trkpt>
      <trkpt lat="47.51053" lon="1.16553">
        <ele>99</ele>
        <time>2000-01-01T02:48:38.000Z</time>
      </trkpt>
      <trkpt lat="47.51032" lon="1.16606">
        <ele>98</ele>
        <time>2000-01-01T02:48:48.000Z</time>
      </trkpt>
      <trkpt lat="47.51004" lon="1.16677">
        <ele>98</ele>
        <time>2000-01-01T02:48:58.000Z</time>
      </trkpt>
      <trkpt lat="47.50973" lon="1.16708">
        <ele>98</ele>
        <time>2000-01-01T02:49:08.000Z</time>
      </trkpt>
      <trkpt lat="47.50943" lon="1.16739">
        <ele>93</ele>
        <time>2000-01-01T02:49:18.000Z</time>
      </trkpt>
      <trkpt lat="47.50912" lon="1.1677">
        <ele>95</ele>
        <time>2000-01-01T02:49:28.000Z</time>
      </trkpt>
      <trkpt lat="47.50881" lon="1.16801">
        <ele>93</ele>
        <time>2000-01-01T02:49:38.000Z</time>
      </trkpt>
      <trkpt lat="47.50839" lon="1.16844">
        <ele>97</ele>
        <time>2000-01-01T02:49:48.000Z</time>
      </trkpt>
      <trkpt lat="47.50804" lon="1.16853">
        <ele>96</ele>
        <time>2000-01-01T02:49:58.000Z</time>
      </trkpt>
      <trkpt lat="47.50768" lon="1.16863">
        <ele>96</ele>
        <time>2000-01-01T02:50:08.000Z</time>
      </trkpt>
      <trkpt lat="47.50732" lon="1.16872">
        <ele>94</ele>
        <time>2000-01-01T02:50:18.000Z</time>
      </trkpt>
      <trkpt lat="47.50663" lon="1.16891">
        <ele>96</ele>
        <time>2000-01-01T02:50:28.000Z</time>
      </trkpt>
      <trkpt lat="47.50629" lon="1.16912">
        <ele>99</ele>
        <time>2000-01-01T02:50:38.000Z</time>
      </trkpt>
      <trkpt lat="47.50594" lon="1.16933">
        <ele>106</ele>
        <time>2000-01-01T02:50:48.000Z</time>
      </trkpt>
      <trkpt lat="47.50559" lon="1.16954">
        <ele>106</ele>
        <time>2000-01-01T02:50:58.000Z</time>
      </trkpt>
      <trkpt lat="47.50525" lon="1.16975">
        <ele>105</ele>
        <time>2000-01-01T02:51:08.000Z</time>
      </trkpt>
      <trkpt lat="47.50469" lon="1.17009">
        <ele>105</ele>
        <time>2000-01-01T02:51:18.000Z</time>
      </trkpt>
      <trkpt lat="47.50454" lon="1.16972">
        <ele>100</ele>
        <time>2000-01-01T02:51:28.000Z</time>
      </trkpt>
      <trkpt lat="47.50427" lon="1.16905">
        <ele>96</ele>
        <time>2000-01-01T02:51:38.000Z</time>
      </trkpt>
      <trkpt lat="47.50405" lon="1.16929">
        <ele>93</ele>
        <time>2000-01-01T02:51:48.000Z</time>
      </trkpt>
      <trkpt lat="47.50372" lon="1.16964">
        <ele>91</ele>
        <time>2000-01-01T02:51:58.000Z</time>
      </trkpt>
      <trkpt lat="47.50344" lon="1.16987">
        <ele>89</ele>
        <time>2000-01-01T02:52:08.000Z</time>
      </trkpt>
      <trkpt lat="47.50315" lon="1.1701">
        <ele>78</ele>
        <time>2000-01-01T02:52:18.000Z</time>
      </trkpt>
      <trkpt lat="47.50272" lon="1.17044">
        <ele>72</ele>
        <time>2000-01-01T02:52:28.000Z</time>
      </trkpt>
      <trkpt lat="47.50278" lon="1.16995">
        <ele>71</ele>
        <time>2000-01-01T02:52:38.000Z</time>
      </trkpt>
      <trkpt lat="47.50285" lon="1.16945">
        <ele>70</ele>
        <time>2000-01-01T02:52:48.000Z</time>
      </trkpt>
      <trkpt lat="47.50297" lon="1.16852">
        <ele>72</ele>
        <time>2000-01-01T02:52:58.000Z</time>
      </trkpt>
      <trkpt lat="47.50305" lon="1.16809">
        <ele>74</ele>
        <time>2000-01-01T02:53:08.000Z</time>
      </trkpt>
      <trkpt lat="47.50321" lon="1.16724">
        <ele>74</ele>
        <time>2000-01-01T02:53:18.000Z</time>
      </trkpt>
      <trkpt lat="47.50319" lon="1.16676">
        <ele>75</ele>
        <time>2000-01-01T02:53:28.000Z</time>
      </trkpt>
      <trkpt lat="47.50317" lon="1.16627">
        <ele>75</ele>
        <time>2000-01-01T02:53:38.000Z</time>
      </trkpt>
      <trkpt lat="47.50313" lon="1.16544">
        <ele>75</ele>
        <time>2000-01-01T02:53:48.000Z</time>
      </trkpt>
      <trkpt lat="47.50337" lon="1.16571">
        <ele>85</ele>
        <time>2000-01-01T02:53:58.000Z</time>
      </trkpt>
      <trkpt lat="47.50383" lon="1.16623">
        <ele>87</ele>
        <time>2000-01-01T02:54:08.000Z</time>
      </trkpt>
      <trkpt lat="47.50399" lon="1.16583">
        <ele>89</ele>
        <time>2000-01-01T02:54:18.000Z</time>
      </trkpt>
      <trkpt lat="47.50379" lon="1.16552">
        <ele>84</ele>
        <time>2000-01-01T02:54:28.000Z</time>
      </trkpt>
      <trkpt lat="47.50345" lon="1.165">
        <ele>83</ele>
        <time>2000-01-01T02:54:38.000Z</time>
      </trkpt>
      <trkpt lat="47.50371" lon="1.16498">
        <ele>82</ele>
        <time>2000-01-01T02:54:48.000Z</time>
      </trkpt>
      <trkpt lat="47.50405" lon="1.16496">
        <ele>80</ele>
        <time>2000-01-01T02:54:58.000Z</time>
      </trkpt>
      <trkpt lat="47.50431" lon="1.16474">
        <ele>83</ele>
        <time>2000-01-01T02:55:08.000Z</time>
      </trkpt>
      <trkpt lat="47.50458" lon="1.16452">
        <ele>82</ele>
        <time>2000-01-01T02:55:18.000Z</time>
      </trkpt>
      <trkpt lat="47.50487" lon="1.16428">
        <ele>82</ele>
        <time>2000-01-01T02:55:28.000Z</time>
      </trkpt>
      <trkpt lat="47.50506" lon="1.16369">
        <ele>86</ele>
        <time>2000-01-01T02:55:38.000Z</time>
      </trkpt>
      <trkpt lat="47.50496" lon="1.16332">
        <ele>87</ele>
        <time>2000-01-01T02:55:48.000Z</time>
      </trkpt>
      <trkpt lat="47.50481" lon="1.16277">
        <ele>88</ele>
        <time>2000-01-01T02:55:58.000Z</time>
      </trkpt>
      <trkpt lat="47.50465" lon="1.1625">
        <ele>89</ele>
        <time>2000-01-01T02:56:08.000Z</time>
      </trkpt>
      <trkpt lat="47.50444" lon="1.16216">
        <ele>92</ele>
        <time>2000-01-01T02:56:18.000Z</time>
      </trkpt>
      <trkpt lat="47.5042" lon="1.16196">
        <ele>96</ele>
        <time>2000-01-01T02:56:28.000Z</time>
      </trkpt>
      <trkpt lat="47.50382" lon="1.16164">
        <ele>100</ele>
        <time>2000-01-01T02:56:38.000Z</time>
      </trkpt>
      <trkpt lat="47.5036" lon="1.16153">
        <ele>105</ele>
        <time>2000-01-01T02:56:48.000Z</time>
      </trkpt>
      <trkpt lat="47.50337" lon="1.1614">
        <ele>107</ele>
        <time>2000-01-01T02:56:58.000Z</time>
      </trkpt>
      <trkpt lat="47.50309" lon="1.16152">
        <ele>107</ele>
        <time>2000-01-01T02:57:08.000Z</time>
      </trkpt>
      <trkpt lat="47.5026" lon="1.16174">
        <ele>106</ele>
        <time>2000-01-01T02:57:18.000Z</time>
      </trkpt>
      <trkpt lat="47.50248" lon="1.16211">
        <ele>106</ele>
        <time>2000-01-01T02:57:28.000Z</time>
      </trkpt>
      <trkpt lat="47.50254" lon="1.16254">
        <ele>105</ele>
        <time>2000-01-01T02:57:38.000Z</time>
      </trkpt>
      <trkpt lat="47.50257" lon="1.16292">
        <ele>98</ele>
        <time>2000-01-01T02:57:48.000Z</time>
      </trkpt>
      <trkpt lat="47.50257" lon="1.16292">
        <ele>73.1</ele>
        <time>2000-01-01T02:57:58.000Z</time>
      </trkpt>
      <trkpt lat="47.50232" lon="1.16286">
        <ele>97</ele>
        <time>2000-01-01T02:58:08.000Z</time>
      </trkpt>
      <trkpt lat="47.50213" lon="1.16277">
        <ele>97</ele>
        <time>2000-01-01T02:58:18.000Z</time>
      </trkpt>
      <trkpt lat="47.50202" lon="1.1632">
        <ele>99</ele>
        <time>2000-01-01T02:58:28.000Z</time>
      </trkpt>
      <trkpt lat="47.5019" lon="1.16348">
        <ele>99</ele>
        <time>2000-01-01T02:58:38.000Z</time>
      </trkpt>
      <trkpt lat="47.50182" lon="1.16388">
        <ele>95</ele>
        <time>2000-01-01T02:58:48.000Z</time>
      </trkpt>
      <trkpt lat="47.5017" lon="1.16453">
        <ele>95</ele>
        <time>2000-01-01T02:58:58.000Z</time>
      </trkpt>
      <trkpt lat="47.50169" lon="1.16494">
        <ele>92</ele>
        <time>2000-01-01T02:59:08.000Z</time>
      </trkpt>
      <trkpt lat="47.50168" lon="1.16554">
        <ele>89</ele>
        <time>2000-01-01T02:59:18.000Z</time>
      </trkpt>
      <trkpt lat="47.50169" lon="1.16591">
        <ele>85</ele>
        <time>2000-01-01T02:59:28.000Z</time>
      </trkpt>
      <trkpt lat="47.5017" lon="1.16638">
        <ele>82</ele>
        <time>2000-01-01T02:59:38.000Z</time>
      </trkpt>
      <trkpt lat="47.50174" lon="1.16677">
        <ele>83</ele>
        <time>2000-01-01T02:59:48.000Z</time>
      </trkpt>
      <trkpt lat="47.50179" lon="1.16733">
        <ele>81</ele>
        <time>2000-01-01T02:59:58.000Z</time>
      </trkpt>
      <trkpt lat="47.50196" lon="1.16783">
        <ele>80</ele>
        <time>2000-01-01T03:00:08.000Z</time>
      </trkpt>
    </trkseg>
  </trk>
</gpx>